Time;durP1;ratioP1;P1;durP2;ratioP2;P2;SDS_P1;SDS_P2;PMS_P1;PMS_P2;Temp;Humidity;BMP_temperature;BMP_pressure;BME280_temperature;BME280_humidity;BME280_pressure;Samples;Min_cycle;Max_cycle;Signal;HPM_P1;HPM_P2
2023/05/16 00:02:20;;;;;;;1.17;0.47;;;18.60;72.60;;;;;;5072491;28;20041;-81
2023/05/16 00:04:47;;;;;;;2.33;0.40;;;18.60;71.30;;;;;;5054129;28;20059;-79
2023/05/16 00:07:13;;;;;;;0.77;0.45;;;18.70;71.20;;;;;;5072519;28;20443;-81
2023/05/16 00:09:38;;;;;;;0.40;0.40;;;18.70;70.60;;;;;;5072409;28;20043;-80
2023/05/16 00:12:04;;;;;;;4.70;0.45;;;18.70;71.80;;;;;;5072456;28;20025;-80
2023/05/16 00:14:30;;;;;;;2.50;0.55;;;18.60;73.10;;;;;;5072315;28;20550;-81
2023/05/16 00:16:59;;;;;;;5.45;0.60;;;18.60;73.30;;;;;;5072783;28;20067;-81
2023/05/16 00:19:26;;;;;;;1.08;0.50;;;18.60;73.40;;;;;;5072525;28;20557;-81
2023/05/16 00:21:52;;;;;;;3.20;0.50;;;18.60;71.50;;;;;;5071045;28;20035;-82
2023/05/16 00:24:18;;;;;;;2.97;0.43;;;18.60;72.50;;;;;;5072475;28;20029;-82
2023/05/16 00:26:44;;;;;;;2.33;0.40;;;18.50;73.70;;;;;;5076456;28;20024;-81
2023/05/16 00:29:10;;;;;;;1.90;0.60;;;18.40;73.90;;;;;;5076546;28;20024;-82
2023/05/16 00:31:35;;;;;;;0.90;0.50;;;18.30;74.80;;;;;;5076357;28;20078;-81
2023/05/16 00:34:01;;;;;;;0.88;0.35;;;18.30;75.40;;;;;;5076347;28;20099;-81
2023/05/16 00:36:27;;;;;;;0.90;0.50;;;18.20;74.20;;;;;;5076116;28;20078;-81
2023/05/16 00:38:53;;;;;;;1.10;0.47;;;18.20;75.40;;;;;;5076149;28;20541;-82
2023/05/16 00:41:19;;;;;;;3.33;0.60;;;18.10;75.30;;;;;;5077418;28;20100;-79
2023/05/16 00:43:45;;;;;;;1.13;0.50;;;18.10;76.30;;;;;;5076415;28;20043;-81
2023/05/16 00:46:11;;;;;;;4.78;0.88;;;18.10;78.10;;;;;;5076690;28;20017;-82
2023/05/16 00:48:37;;;;;;;1.35;0.70;;;18.10;78.10;;;;;;5076443;28;20047;-81
2023/05/16 00:51:09;;;;;;;1.40;0.50;;;18.00;77.40;;;;;;5057974;28;20481;-82
2023/05/16 00:53:36;;;;;;;0.85;0.52;;;17.90;78.40;;;;;;5076121;28;20051;-82
2023/05/16 00:56:05;;;;;;;1.48;0.57;;;17.80;78.90;;;;;;5075192;28;20354;-81
2023/05/16 01:02:28;;;;;;;1.60;0.50;;;17.60;79.90;;;;;;4952722;28;20047;-81
2023/05/16 01:05:29;;;;;;;0.30;0.30;;;17.50;80.20;;;;;;4954003;28;20055;-82
2023/05/16 01:07:56;;;;;;;3.97;0.50;;;17.50;78.50;;;;;;4936093;29;20451;-82
2023/05/16 01:10:26;;;;;;;0.93;0.60;;;17.40;78.60;;;;;;5013161;28;20041;-82
2023/05/16 01:13:26;;;;;;;1.88;0.60;;;17.40;78.80;;;;;;5022546;28;20043;-82
2023/05/16 01:16:08;;;;;;;1.33;0.82;;;17.40;79.80;;;;;;4987549;28;20120;-81
2023/05/16 01:22:29;;;;;;;0.70;0.52;;;17.40;81.00;;;;;;5049236;28;20033;-81
2023/05/16 01:25:10;;;;;;;1.30;0.70;;;17.40;80.40;;;;;;5059091;28;20448;-81
2023/05/16 01:27:38;;;;;;;0.98;0.57;;;17.30;78.80;;;;;;5040260;28;20400;-81
2023/05/16 01:30:15;;;;;;;5.03;0.57;;;17.30;79.30;;;;;;5055560;28;20369;-82
2023/05/16 01:32:41;;;;;;;0.50;0.50;;;17.30;80.50;;;;;;5055077;28;20025;-82
2023/05/16 01:35:09;;;;;;;4.20;0.70;;;17.30;80.70;;;;;;5054742;28;20032;-83
2023/05/16 01:37:41;;;;;;;0.63;0.40;;;17.30;80.30;;;;;;5055180;28;20112;-83
2023/05/16 01:40:18;;;;;;;2.30;0.50;;;17.30;79.10;;;;;;5055066;28;20401;-83
2023/05/16 01:42:47;;;;;;;4.00;0.80;;;17.30;77.70;;;;;;5054766;28;20036;-83
2023/05/16 01:45:33;;;;;;;3.03;0.60;;;17.30;76.60;;;;;;5055086;28;20020;-83
2023/05/16 01:48:15;;;;;;;1.40;0.60;;;17.30;75.00;;;;;;5055270;28;20420;-82
2023/05/16 01:50:50;;;;;;;4.53;0.60;;;17.30;75.30;;;;;;5054657;28;20079;-82
2023/05/16 01:53:34;;;;;;;1.13;0.50;;;17.30;74.20;;;;;;5054525;28;20024;-83
2023/05/16 01:56:01;;;;;;;0.75;0.50;;;17.30;72.20;;;;;;5054646;28;20053;-82
2023/05/16 01:58:30;;;;;;;1.48;0.50;;;17.40;72.80;;;;;;5054930;28;20469;-82
2023/05/16 02:01:02;;;;;;;1.92;0.73;;;17.40;72.80;;;;;;5055103;28;20025;-83
2023/05/16 02:03:29;;;;;;;2.33;0.60;;;17.40;71.70;;;;;;5041223;28;20056;-82
2023/05/16 02:05:55;;;;;;;1.90;0.73;;;17.40;72.80;;;;;;5074571;28;20468;-82
2023/05/16 02:08:22;;;;;;;2.63;0.63;;;17.40;72.70;;;;;;5056544;28;20028;-83
2023/05/16 02:10:47;;;;;;;4.93;0.60;;;17.50;74.10;;;;;;5074651;28;20031;-83
2023/05/16 02:13:13;;;;;;;1.15;0.38;;;17.50;73.10;;;;;;5074675;28;20036;-81
2023/05/16 02:15:39;;;;;;;0.90;0.50;;;17.50;71.20;;;;;;5074428;28;20099;-82
2023/05/16 02:18:05;;;;;;;7.72;0.50;;;17.50;72.00;;;;;;5074401;28;20028;-82
2023/05/16 02:20:31;;;;;;;2.90;0.60;;;17.50;73.10;;;;;;5074242;28;20103;-81
2023/05/16 02:22:57;;;;;;;0.95;0.40;;;17.60;71.80;;;;;;5074096;28;20037;-83
2023/05/16 02:25:23;;;;;;;6.20;0.70;;;17.50;73.10;;;;;;5073840;28;20024;-81
2023/05/16 02:27:49;;;;;;;1.15;0.60;;;17.60;73.30;;;;;;5072595;28;20032;-82
2023/05/16 02:30:14;;;;;;;2.45;0.68;;;17.60;72.90;;;;;;5056203;28;20252;-83
2023/05/16 02:32:43;;;;;;;1.45;0.60;;;17.50;72.40;;;;;;5073746;28;20082;-81
2023/05/16 02:35:10;;;;;;;4.00;0.50;;;17.60;72.30;;;;;;5056693;28;20021;-84
2023/05/16 02:37:36;;;;;;;2.17;0.50;;;17.60;71.10;;;;;;5056879;28;20032;-83
2023/05/16 02:40:06;;;;;;;2.63;0.60;;;17.60;70.40;;;;;;5074622;28;20017;-82
2023/05/16 02:42:37;;;;;;;5.60;0.70;;;17.60;71.00;;;;;;5074595;28;20392;-80
2023/05/16 02:45:12;;;;;;;1.65;0.77;;;17.70;73.00;;;;;;5074115;28;20030;-79
2023/05/16 02:47:59;;;;;;;2.78;0.60;;;17.70;72.40;;;;;;5073035;28;20021;-81
2023/05/16 02:50:43;;;;;;;2.42;0.80;;;17.60;71.70;;;;;;5056369;28;20087;-80
2023/05/16 02:53:47;;;;;;;30.63;2.30;;;17.60;72.40;;;;;;5072954;28;20032;-80
2023/05/16 02:56:40;;;;;;;4.63;0.70;;;17.70;72.20;;;;;;4973377;28;20039;-82
2023/05/16 02:59:35;;;;;;;3.92;0.70;;;17.70;71.60;;;;;;5073996;28;20423;-82
2023/05/16 03:05:26;;;;;;;1.58;0.73;;;17.70;71.80;;;;;;5064369;28;20063;-82
2023/05/16 03:11:00;;;;;;;4.95;0.63;;;17.70;69.60;;;;;;4953759;29;20098;-82
2023/05/16 03:13:37;;;;;;;;;;;;;;;;;;;;;
2023/05/16 03:16:04;;;;;;;4.43;1.52;;;17.70;70.00;;;;;;5053465;28;20027;-82
2023/05/16 03:18:30;;;;;;;1.25;0.50;;;17.70;70.80;;;;;;5053381;28;20029;-83
2023/05/16 03:20:57;;;;;;;4.47;0.52;;;17.70;70.00;;;;;;5035561;28;20029;-82
2023/05/16 03:23:23;;;;;;;6.20;0.52;;;17.70;70.00;;;;;;5035283;28;20052;-82
2023/05/16 03:25:48;;;;;;;5.57;1.25;;;17.70;70.10;;;;;;5052909;28;20032;-81
2023/05/16 03:28:19;;;;;;;2.03;0.77;;;17.70;69.30;;;;;;5053047;28;20021;-83
2023/05/16 03:30:45;;;;;;;3.75;0.60;;;17.80;69.70;;;;;;5053182;28;20361;-83
2023/05/16 03:33:11;;;;;;;2.53;0.52;;;17.80;70.40;;;;;;5035056;28;20036;-82
2023/05/16 03:35:38;;;;;;;1.77;0.60;;;17.80;69.50;;;;;;5052966;28;20466;-83
2023/05/16 03:38:04;;;;;;;0.90;0.50;;;17.80;69.70;;;;;;5052374;28;20458;-83
2023/05/16 03:40:30;;;;;;;3.40;0.77;;;17.80;69.30;;;;;;5053014;28;20051;-82
2023/05/16 03:42:55;;;;;;;1.80;0.50;;;17.80;68.70;;;;;;5052937;28;20036;-81
2023/05/16 03:45:21;;;;;;;1.42;0.70;;;17.70;69.40;;;;;;5053043;28;20104;-82
2023/05/16 03:47:50;;;;;;;2.00;0.70;;;17.70;69.70;;;;;;5052633;28;20025;-83
2023/05/16 03:50:16;;;;;;;3.63;0.93;;;17.80;68.90;;;;;;5052956;28;20493;-83
2023/05/16 03:52:42;;;;;;;5.72;0.75;;;17.80;69.10;;;;;;5052657;28;20033;-83
2023/05/16 03:55:09;;;;;;;2.35;0.77;;;17.80;68.90;;;;;;5052731;28;20032;-82
2023/05/16 03:57:40;;;;;;;2.88;0.60;;;17.90;68.00;;;;;;5053137;28;20031;-81
2023/05/16 04:00:11;;;;;;;0.98;0.50;;;17.90;67.90;;;;;;5052536;28;20075;-82
2023/05/16 04:02:39;;;;;;;3.35;0.70;;;17.90;68.20;;;;;;5052438;28;20032;-82
2023/05/16 04:05:08;;;;;;;3.70;0.70;;;17.90;69.90;;;;;;5061577;28;20400;-80
2023/05/16 04:07:35;;;;;;;5.28;0.90;;;17.90;69.60;;;;;;5054805;28;20032;-81
2023/05/16 04:10:01;;;;;;;4.20;0.70;;;17.80;69.80;;;;;;5072678;28;20055;-80
2023/05/16 04:12:27;;;;;;;3.22;0.70;;;17.90;70.00;;;;;;5072415;28;20025;-83
2023/05/16 04:14:52;;;;;;;4.50;0.60;;;17.90;69.00;;;;;;5072528;28;20025;-82
2023/05/16 04:17:18;;;;;;;3.78;0.77;;;17.80;68.90;;;;;;5072479;28;20122;-82
2023/05/16 04:19:44;;;;;;;2.85;0.50;;;17.80;69.70;;;;;;5073980;28;20040;-80
2023/05/16 04:22:10;;;;;;;3.25;0.60;;;17.80;70.20;;;;;;5073123;28;20013;-81
2023/05/16 04:24:36;;;;;;;7.95;0.80;;;17.80;70.30;;;;;;5073129;28;20385;-82
2023/05/16 04:27:07;;;;;;;6.63;0.80;;;17.70;69.50;;;;;;5073233;28;20099;-82
2023/05/16 04:29:34;;;;;;;3.28;0.70;;;17.70;69.70;;;;;;5055073;28;20021;-83
2023/05/16 04:32:39;;;;;;;;;;;;;;;;;;;;;
2023/05/16 04:35:53;;;;;;;3.80;0.55;;;17.70;69.20;;;;;;5072932;28;20021;-82
2023/05/16 04:41:50;;;;;;;5.05;0.70;;;17.70;67.80;;;;;;4968438;28;20035;-83
2023/05/16 04:51:32;;;;;;;4.68;1.75;;;17.80;69.20;;;;;;4913853;29;20051;-83
2023/05/16 04:57:22;;;;;;;1.92;0.80;;;17.70;72.60;;;;;;4907386;29;20033;-82
2023/05/16 05:03:12;;;;;;;2.47;0.68;;;17.50;73.60;;;;;;4914688;29;20412;-79
2023/05/16 05:05:38;;;;;;;4.80;0.68;;;17.40;73.60;;;;;;4949729;28;20466;-82
2023/05/16 05:08:05;;;;;;;4.20;1.00;;;17.40;74.40;;;;;;5023145;28;20041;-82
2023/05/16 05:10:31;;;;;;;2.20;0.75;;;17.40;75.50;;;;;;5074055;28;20028;-82
2023/05/16 05:12:57;;;;;;;1.70;0.70;;;17.30;76.80;;;;;;5074275;28;20024;-82
2023/05/16 05:15:23;;;;;;;4.72;0.80;;;17.20;79.10;;;;;;5075817;28;20370;-82
2023/05/16 05:17:49;;;;;;;2.20;0.70;;;17.20;80.30;;;;;;5075425;28;20032;-82
2023/05/16 05:20:14;;;;;;;4.63;0.70;;;17.20;79.90;;;;;;5057323;28;20107;-82
2023/05/16 05:22:40;;;;;;;8.45;1.00;;;17.10;79.40;;;;;;5075211;28;20068;-83
2023/05/16 05:25:07;;;;;;;4.07;1.42;;;17.20;79.80;;;;;;5073600;28;20476;-82
2023/05/16 05:27:33;;;;;;;4.53;0.85;;;17.20;78.50;;;;;;5074834;28;20499;-82
2023/05/16 05:29:59;;;;;;;2.00;0.75;;;17.10;78.80;;;;;;5057175;28;20072;-83
2023/05/16 05:32:25;;;;;;;2.88;0.73;;;17.10;79.40;;;;;;5075267;28;20021;-83
2023/05/16 05:34:51;;;;;;;1.17;0.70;;;17.10;78.10;;;;;;5075028;28;20102;-83
2023/05/16 05:37:17;;;;;;;1.65;0.68;;;17.10;75.60;;;;;;5057180;28;20465;-82
2023/05/16 05:39:43;;;;;;;4.97;1.15;;;17.10;77.60;;;;;;5076554;28;20532;-85
2023/05/16 05:42:10;;;;;;;2.65;1.05;;;17.10;78.50;;;;;;5095170;28;20026;-81
2023/05/16 05:44:37;;;;;;;1.73;0.80;;;17.10;80.60;;;;;;5094971;28;20541;-82
2023/05/16 05:47:05;;;;;;;2.75;1.05;;;17.10;80.20;;;;;;5095164;28;20492;-82
2023/05/16 05:49:31;;;;;;;2.08;0.70;;;17.00;80.70;;;;;;5095268;28;20030;-82
2023/05/16 05:51:57;;;;;;;1.50;0.80;;;17.00;80.40;;;;;;5095273;28;20066;-83
2023/05/16 05:54:23;;;;;;;1.15;0.50;;;17.00;78.00;;;;;;5095091;28;20020;-82
2023/05/16 05:56:48;;;;;;;2.10;0.77;;;17.00;76.00;;;;;;5095382;28;20024;-83
2023/05/16 05:59:14;;;;;;;0.47;0.40;;;17.00;76.20;;;;;;5076677;28;20030;-82
2023/05/16 06:01:41;;;;;;;2.50;0.82;;;17.10;75.50;;;;;;5095119;28;20016;-83
2023/05/16 06:04:07;;;;;;;2.50;0.88;;;17.10;74.70;;;;;;5076650;28;20032;-82
2023/05/16 06:06:32;;;;;;;3.40;0.70;;;17.10;73.30;;;;;;5094793;28;20020;-83
2023/05/16 06:08:58;;;;;;;1.10;0.70;;;17.10;74.80;;;;;;5095265;28;20028;-82
2023/05/16 06:11:24;;;;;;;0.80;0.60;;;17.10;75.80;;;;;;5096278;28;20503;-82
2023/05/16 06:13:53;;;;;;;3.63;0.60;;;17.10;75.60;;;;;;5095633;28;20020;-82
2023/05/16 06:16:24;;;;;;;0.88;0.47;;;17.10;75.80;;;;;;5077006;28;20077;-83
2023/05/16 06:18:50;;;;;;;1.35;0.50;;;17.20;73.50;;;;;;5095549;28;20073;-82
2023/05/16 06:21:25;;;;;;;6.35;0.55;;;17.20;73.60;;;;;;5094981;28;20024;-83
2023/05/16 06:24:18;;;;;;;2.33;0.60;;;17.20;72.00;;;;;;5095366;28;20032;-82
2023/05/16 06:28:12;;;;;;;3.78;0.70;;;17.30;73.00;;;;;;5094626;28;20106;-83
2023/05/16 06:31:03;;;;;;;1.30;0.68;;;17.30;72.30;;;;;;4966390;28;20039;-82
2023/05/16 06:37:02;;;;;;;1.80;0.50;;;17.30;71.20;;;;;;4989554;28;20038;-82
2023/05/16 06:39:31;;;;;;;1.42;0.65;;;17.30;72.50;;;;;;5048222;28;20037;-81
2023/05/16 06:49:49;;;;;;;5.82;0.70;;;17.40;72.40;;;;;;3167012;22;20127;-82
2023/05/16 06:52:15;;;;;;;2.42;0.60;;;17.50;73.00;;;;;;5094955;28;20444;-83
2023/05/16 06:54:44;;;;;;;2.20;0.70;;;17.40;74.10;;;;;;5094690;28;20028;-79
2023/05/16 06:57:10;;;;;;;1.60;0.63;;;17.50;73.60;;;;;;5098619;28;20024;-82
2023/05/16 06:59:36;;;;;;;2.67;0.80;;;17.40;74.70;;;;;;5076677;28;20059;-82
2023/05/16 07:02:02;;;;;;;3.63;0.70;;;17.50;74.40;;;;;;5075632;28;20054;-80
2023/05/16 07:04:28;;;;;;;2.22;0.80;;;17.50;73.30;;;;;;5092846;28;20020;-80
2023/05/16 07:06:54;;;;;;;2.30;0.50;;;17.40;73.70;;;;;;5093078;28;20491;-82
2023/05/16 07:09:20;;;;;;;0.82;0.50;;;17.40;73.90;;;;;;5093580;28;20059;-81
2023/05/16 07:11:46;;;;;;;0.95;0.60;;;17.50;73.90;;;;;;5093240;28;20379;-81
2023/05/16 07:14:16;;;;;;;4.57;0.80;;;17.40;73.50;;;;;;5074738;28;20114;-80
2023/05/16 07:16:42;;;;;;;0.93;0.50;;;17.40;73.70;;;;;;5092990;28;20353;-82
2023/05/16 07:19:08;;;;;;;1.13;0.60;;;17.50;74.10;;;;;;5075128;28;20028;-80
2023/05/16 07:21:38;;;;;;;2.67;0.70;;;17.40;73.50;;;;;;5093038;28;20487;-78
2023/05/16 07:24:05;;;;;;;1.65;0.60;;;17.40;74.70;;;;;;5093549;28;20046;-80
2023/05/16 07:26:31;;;;;;;10.00;0.70;;;17.40;75.90;;;;;;5075225;28;20024;-82
2023/05/16 07:28:57;;;;;;;3.30;0.70;;;17.40;78.30;;;;;;5103447;22;20138;-79
2023/05/16 07:31:24;;;;;;;1.10;0.40;;;17.40;79.80;;;;;;5072252;28;20037;-81
2023/05/16 07:37:56;;;;;;;9.27;0.70;;;17.30;76.00;;;;;;5009068;28;20097;-78
2023/05/16 07:58:08;;;;;;;0.50;0.50;;;17.00;76.90;;;;;;4839543;29;20067;-80
2023/05/16 08:00:34;;;;;;;0.32;0.20;;;16.90;78.90;;;;;;4839913;29;20403;-79
2023/05/16 08:03:01;;;;;;;3.20;0.40;;;16.90;78.40;;;;;;4893275;29;20413;-78
2023/05/16 08:05:27;;;;;;;3.50;0.30;;;16.80;78.60;;;;;;5010718;28;20439;-80
2023/05/16 08:07:53;;;;;;;0.60;0.30;;;16.80;78.60;;;;;;5072645;28;20078;-79
2023/05/16 08:10:19;;;;;;;1.38;0.43;;;16.80;79.20;;;;;;5072770;28;20112;-80
2023/05/16 08:12:45;;;;;;;3.67;0.32;;;16.80;79.80;;;;;;5072158;28;20036;-78
2023/05/16 08:15:11;;;;;;;7.35;0.52;;;16.80;77.90;;;;;;5071624;28;20035;-79
2023/05/16 08:17:37;;;;;;;2.95;0.40;;;16.80;78.80;;;;;;5071876;28;20029;-80
2023/05/16 08:20:03;;;;;;;2.95;1.00;;;16.80;81.40;;;;;;5072235;28;20380;-79
2023/05/16 08:22:30;;;;;;;8.48;0.52;;;16.80;79.30;;;;;;5072172;28;20035;-80
2023/05/16 08:24:56;;;;;;;4.95;0.50;;;16.70;80.50;;;;;;5072527;28;20506;-79
2023/05/16 08:27:23;;;;;;;3.13;0.50;;;16.70;79.00;;;;;;5072558;28;20025;-79
2023/05/16 08:29:49;;;;;;;2.10;0.40;;;16.70;79.30;;;;;;5054066;28;20510;-79
2023/05/16 08:32:15;;;;;;;1.02;0.35;;;16.60;77.40;;;;;;5072810;28;20056;-78
2023/05/16 08:34:41;;;;;;;3.85;0.40;;;16.60;77.60;;;;;;5072245;28;20089;-78
2023/05/16 08:37:07;;;;;;;1.75;0.40;;;16.70;76.80;;;;;;5054697;28;20071;-81
2023/05/16 08:39:33;;;;;;;0.57;0.30;;;16.70;75.00;;;;;;5054285;28;20028;-81
2023/05/16 08:41:59;;;;;;;2.28;0.40;;;16.80;76.50;;;;;;5054079;28;20064;-81
2023/05/16 08:44:26;;;;;;;1.05;0.40;;;16.80;74.80;;;;;;5072105;28;20064;-81
2023/05/16 08:46:53;;;;;;;0.30;0.20;;;16.90;74.40;;;;;;5076002;28;20132;-81
2023/05/16 08:49:20;;;;;;;1.83;0.30;;;16.90;72.70;;;;;;5076745;28;20056;-79
2023/05/16 08:51:47;;;;;;;3.60;0.35;;;17.00;72.60;;;;;;5058540;28;20103;-78
2023/05/16 08:54:15;;;;;;;2.42;0.30;;;17.10;74.00;;;;;;5076817;28;20467;-80
2023/05/16 08:56:45;;;;;;;0.30;0.20;;;17.10;75.60;;;;;;5076584;28;20385;-82
2023/05/16 09:24:09;;;;;;;0.90;0.20;;;18.00;70.90;;;;;;4829960;29;20049;-81
2023/05/16 09:26:37;;;;;;;3.03;0.20;;;18.20;71.00;;;;;;4953547;28;20034;-82
2023/05/16 09:29:13;;;;;;;3.88;0.30;;;18.30;69.50;;;;;;5056983;28;20048;-82
2023/05/16 09:31:39;;;;;;;1.45;0.28;;;18.30;68.80;;;;;;5075079;28;20392;-80
2023/05/16 09:34:11;;;;;;;0.80;0.20;;;18.30;65.70;;;;;;5075121;28;20070;-80
2023/05/16 09:36:37;;;;;;;0.13;0.13;;;18.40;68.00;;;;;;5075233;28;20400;-80
2023/05/16 09:39:05;;;;;;;2.13;1.00;;;18.50;69.80;;;;;;5075248;28;20421;-80
2023/05/16 09:41:35;;;;;;;0.20;0.20;;;18.60;69.30;;;;;;5075251;28;20028;-80
2023/05/16 09:44:08;;;;;;;2.55;0.50;;;18.70;68.40;;;;;;5075192;28;20395;-79
2023/05/16 09:46:34;;;;;;;6.63;0.50;;;18.80;68.60;;;;;;5075211;28;20032;-82
2023/05/16 09:49:01;;;;;;;0.85;0.45;;;18.90;69.00;;;;;;5075019;28;20436;-81
2023/05/16 09:51:27;;;;;;;0.55;0.17;;;18.90;66.10;;;;;;5074786;28;20542;-81
2023/05/16 09:53:53;;;;;;;0.50;0.30;;;18.90;65.10;;;;;;5074647;28;20016;-79
2023/05/16 09:56:20;;;;;;;2.25;0.30;;;18.90;66.90;;;;;;5074264;28;20077;-81
2023/05/16 09:58:46;;;;;;;2.35;0.40;;;18.90;64.50;;;;;;5074667;28;20036;-81
2023/05/16 10:01:12;;;;;;;3.13;0.30;;;18.90;65.40;;;;;;5074577;28;20025;-80
2023/05/16 10:03:40;;;;;;;0.68;0.17;;;18.80;63.50;;;;;;5074374;28;20035;-80
2023/05/16 10:06:06;;;;;;;1.27;0.20;;;18.80;65.00;;;;;;5074842;28;20039;-81
2023/05/16 10:08:35;;;;;;;2.95;0.40;;;18.80;66.90;;;;;;5074428;28;20024;-80
2023/05/16 10:11:03;;;;;;;3.75;0.40;;;18.70;65.90;;;;;;5074796;28;20044;-80
2023/05/16 10:13:31;;;;;;;4.13;0.45;;;18.70;63.60;;;;;;5074803;28;20025;-81
2023/05/16 10:15:58;;;;;;;0.88;0.20;;;18.70;64.70;;;;;;5074460;28;20500;-80
2023/05/16 10:18:31;;;;;;;5.72;0.40;;;18.60;65.50;;;;;;5075434;28;20032;-80
2023/05/16 10:21:12;;;;;;;2.00;0.60;;;18.60;67.00;;;;;;5077213;28;20048;-81
2023/05/16 10:23:42;;;;;;;2.67;0.50;;;18.60;67.30;;;;;;5076361;28;20408;-80
2023/05/16 10:26:08;;;;;;;1.00;0.30;;;18.60;67.50;;;;;;5075565;28;20440;-80
2023/05/16 10:28:35;;;;;;;2.45;0.40;;;18.60;67.00;;;;;;5074730;28;20392;-81
2023/05/16 10:31:06;;;;;;;0.88;0.28;;;18.60;67.40;;;;;;5074760;28;20156;-81
2023/05/16 10:36:53;;;;;;;1.15;0.32;;;18.50;67.40;;;;;;5074253;28;20028;-79
2023/05/16 10:46:28;;;;;;;2.10;0.60;;;18.50;72.10;;;;;;4914530;29;20038;-81
2023/05/16 10:49:26;;;;;;;2.35;0.65;;;18.50;73.20;;;;;;4931795;29;20389;-81
2023/05/16 10:52:16;;;;;;;1.60;0.40;;;18.40;77.90;;;;;;4933841;29;20083;-81
2023/05/16 10:55:01;;;;;;;3.08;0.50;;;18.30;79.70;;;;;;4927698;29;20085;-80
2023/05/16 10:57:32;;;;;;;2.55;0.60;;;18.30;80.30;;;;;;4896499;29;20040;-81
2023/05/16 11:00:02;;;;;;;2.30;0.60;;;18.20;80.90;;;;;;4922614;29;20078;-79
2023/05/16 11:02:32;;;;;;;4.18;0.70;;;18.10;81.90;;;;;;4938120;28;20040;-79
2023/05/16 11:05:02;;;;;;;4.32;0.65;;;18.00;83.10;;;;;;5050158;28;20103;-81
2023/05/16 11:07:33;;;;;;;5.22;0.90;;;17.90;83.80;;;;;;5072496;28;20427;-80
2023/05/16 11:10:06;;;;;;;6.00;0.90;;;17.90;84.80;;;;;;5073561;28;20438;-77
2023/05/16 11:12:43;;;;;;;5.20;0.60;;;17.80;86.40;;;;;;5055178;28;20059;-80
2023/05/16 11:15:24;;;;;;;1.20;0.50;;;17.70;88.00;;;;;;5072894;28;20020;-79
2023/05/16 11:18:11;;;;;;;2.70;0.80;;;17.70;89.60;;;;;;5072828;28;20031;-78
2023/05/16 11:20:38;;;;;;;2.95;0.80;;;17.60;88.70;;;;;;5055331;28;20435;-82
2023/05/16 11:23:15;;;;;;;1.83;0.70;;;17.50;86.10;;;;;;5072842;28;20494;-81
2023/05/16 11:25:44;;;;;;;4.43;0.80;;;17.40;86.50;;;;;;5072893;28;20024;-81
2023/05/16 11:28:12;;;;;;;3.95;0.80;;;17.40;87.90;;;;;;5072909;28;20555;-77
2023/05/16 11:30:50;;;;;;;2.63;0.70;;;17.30;89.20;;;;;;5072929;28;20040;-81
2023/05/16 11:33:16;;;;;;;6.03;1.00;;;17.30;90.10;;;;;;5073291;28;20488;-83
2023/05/16 11:35:42;;;;;;;7.45;1.20;;;17.20;90.60;;;;;;5073195;28;20082;-81
2023/05/16 11:38:15;;;;;;;3.83;1.00;;;17.20;91.00;;;;;;5055017;28;20520;-80
2023/05/16 11:40:41;;;;;;;;;;;17.10;90.90;;;;;;5074100;28;20131;-77
2023/05/16 11:43:07;;;;;;;1.35;0.70;;;17.10;90.30;;;;;;5054552;28;19913;-77
2023/05/16 11:45:33;;;;;;;3.80;0.82;;;17.00;90.60;;;;;;5072664;28;20094;-77
2023/05/16 11:48:02;;;;;;;3.28;0.85;;;17.00;91.20;;;;;;5072649;28;20048;-76
2023/05/16 11:50:29;;;;;;;1.83;0.77;;;16.90;91.70;;;;;;5072442;28;20077;-77
2023/05/16 11:52:56;;;;;;;3.38;0.80;;;16.90;91.90;;;;;;5072662;28;20069;-77
2023/05/16 11:55:28;;;;;;;4.18;1.05;;;16.80;91.20;;;;;;5072435;28;20025;-77
2023/05/16 11:57:58;;;;;;;2.53;0.80;;;16.80;91.20;;;;;;5072298;28;20060;-76
2023/05/16 12:00:26;;;;;;;1.33;0.60;;;16.80;91.20;;;;;;5071645;28;20384;-86
2023/05/16 12:02:54;;;;;;;3.58;0.70;;;16.70;90.80;;;;;;5053088;28;20106;-81
2023/05/16 12:05:25;;;;;;;2.85;0.70;;;16.70;90.90;;;;;;5071842;28;20107;-85
2023/05/16 12:07:54;;;;;;;3.65;0.85;;;16.60;90.80;;;;;;5073037;28;20035;-84
2023/05/16 12:10:20;;;;;;;1.73;0.68;;;16.50;91.20;;;;;;5072194;28;20090;-86
2023/05/16 12:13:04;;;;;;;3.28;0.68;;;16.50;91.00;;;;;;5073069;28;20093;-83
2023/05/16 12:15:43;;;;;;;2.70;0.75;;;16.50;91.40;;;;;;5054178;28;20016;-82
2023/05/16 12:18:57;;;;;;;3.42;0.98;;;16.50;91.10;;;;;;5072320;28;20024;-83
2023/05/16 12:21:30;;;;;;;1.58;0.52;;;16.50;91.10;;;;;;5029787;28;20101;-83
2023/05/16 12:24:57;;;;;;;2.53;0.90;;;16.50;90.70;;;;;;5074247;28;20455;-84
2023/05/16 12:31:07;;;;;;;3.40;0.88;;;16.40;90.60;;;;;;4946087;28;20058;-83
2023/05/16 12:34:09;;;;;;;3.88;0.70;;;16.40;91.10;;;;;;4961174;28;20047;-85
2023/05/16 12:36:58;;;;;;;6.57;0.70;;;16.40;91.50;;;;;;4975739;28;20030;-82
2023/05/16 12:39:24;;;;;;;2.30;0.68;;;16.30;91.30;;;;;;5070736;28;20758;-85
2023/05/16 12:41:50;;;;;;;4.60;1.15;;;16.30;91.00;;;;;;5077111;28;20028;-84
2023/05/16 12:44:18;;;;;;;1.15;0.50;;;16.30;91.30;;;;;;5077302;28;20160;-84
2023/05/16 12:46:50;;;;;;;5.47;0.63;;;16.30;91.10;;;;;;5060137;28;20346;-85
2023/05/16 12:49:19;;;;;;;2.88;1.30;;;16.30;91.10;;;;;;5077200;28;20017;-85
2023/05/16 12:51:57;;;;;;;1.73;0.88;;;16.20;91.50;;;;;;5076271;28;20433;-84
2023/05/16 12:54:24;;;;;;;2.90;0.73;;;16.20;91.90;;;;;;5076060;28;20024;-82
2023/05/16 12:56:50;;;;;;;4.43;0.68;;;16.30;91.30;;;;;;5076223;28;20365;-85
2023/05/16 12:59:16;;;;;;;1.55;0.73;;;16.20;91.30;;;;;;5075847;28;20028;-82
2023/05/16 13:01:43;;;;;;;1.48;0.60;;;16.20;90.80;;;;;;5075741;28;20396;-81
2023/05/16 13:04:13;;;;;;;3.53;1.55;;;16.20;91.40;;;;;;5075778;28;20055;-82
2023/05/16 13:06:40;;;;;;;3.67;0.85;;;16.20;91.70;;;;;;5075941;28;20484;-84
2023/05/16 13:09:06;;;;;;;3.88;1.20;;;16.20;91.50;;;;;;5075843;28;20491;-83
2023/05/16 13:11:32;;;;;;;5.03;1.80;;;16.20;91.50;;;;;;5075712;28;20020;-85
2023/05/16 13:13:58;;;;;;;5.68;1.40;;;16.20;91.40;;;;;;5075393;28;20054;-81
2023/05/16 13:16:24;;;;;;;2.30;0.98;;;16.30;91.90;;;;;;5075680;28;20032;-83
2023/05/16 13:18:49;;;;;;;2.42;1.27;;;16.20;91.80;;;;;;5075571;28;20132;-85
2023/05/16 13:21:15;;;;;;;2.15;0.90;;;16.10;92.00;;;;;;5075721;28;20021;-83
2023/05/16 13:23:41;;;;;;;1.55;0.80;;;16.10;92.40;;;;;;5057397;28;20036;-83
2023/05/16 13:26:07;;;;;;;2.60;0.80;;;16.00;92.80;;;;;;5075573;28;20028;-82
2023/05/16 13:28:32;;;;;;;3.60;0.63;;;16.00;93.50;;;;;;5075702;28;20028;-85
2023/05/16 13:30:58;;;;;;;2.28;0.90;;;16.00;92.60;;;;;;5074575;28;20106;-83
2023/05/16 13:33:24;;;;;;;4.53;1.13;;;16.00;92.70;;;;;;5075559;28;20035;-83
2023/05/16 13:35:50;;;;;;;1.20;0.55;;;16.00;93.70;;;;;;5075274;28;20028;-85
2023/05/16 13:38:17;;;;;;;2.97;0.70;;;16.00;93.30;;;;;;5074473;28;20032;-85
2023/05/16 13:40:43;;;;;;;2.13;0.70;;;16.00;93.00;;;;;;5075013;28;20028;-86
2023/05/16 13:43:09;;;;;;;1.52;0.82;;;16.00;92.70;;;;;;5057546;28;20036;-82
2023/05/16 13:45:36;;;;;;;13.27;12.07;;;16.00;92.80;;;;;;5076001;28;20079;-82
2023/05/16 13:48:03;;;;;;;1.05;0.73;;;16.00;93.50;;;;;;5075887;28;20422;-83
2023/05/16 13:50:32;;;;;;;1.30;0.45;;;16.00;92.50;;;;;;5075658;28;20372;-81
2023/05/16 13:52:58;;;;;;;1.73;0.40;;;15.90;91.50;;;;;;5075175;28;20020;-80
2023/05/16 14:02:47;;;;;;;2.08;0.50;;;15.90;91.60;;;;;;4906919;29;20062;-85
2023/05/16 14:05:34;;;;;;;0.95;0.40;;;15.90;91.40;;;;;;4939099;29;20023;-88
2023/05/16 14:19:03;;;;;;;0.65;0.40;;;15.70;92.50;;;;;;4915025;29;20036;-82
2023/05/16 14:21:33;;;;;;;1.10;0.45;;;15.60;92.90;;;;;;4915950;29;20055;-79
2023/05/16 14:23:59;;;;;;;2.15;0.30;;;15.60;92.30;;;;;;5006058;28;20041;-85
2023/05/16 14:26:25;;;;;;;1.70;0.40;;;15.60;92.80;;;;;;5072006;28;20427;-84
2023/05/16 14:28:51;;;;;;;1.85;0.47;;;15.60;93.10;;;;;;5074464;28;20028;-85
2023/05/16 14:31:17;;;;;;;1.38;0.50;;;15.50;93.40;;;;;;5073985;28;20053;-83
2023/05/16 14:33:43;;;;;;;1.38;0.55;;;15.50;93.90;;;;;;5055853;28;20131;-84
2023/05/16 14:36:09;;;;;;;0.80;0.30;;;15.50;93.20;;;;;;5055124;28;20031;-85
2023/05/16 14:38:35;;;;;;;1.23;0.47;;;15.40;93.60;;;;;;5074033;28;20064;-83
2023/05/16 14:41:02;;;;;;;0.52;0.40;;;15.30;93.30;;;;;;5074339;28;20020;-84
2023/05/16 14:43:27;;;;;;;0.60;0.35;;;15.30;93.50;;;;;;5073006;28;20047;-84
2023/05/16 14:45:53;;;;;;;2.95;1.90;;;15.30;93.80;;;;;;5073974;28;20024;-84
2023/05/16 14:48:19;;;;;;;2.40;1.00;;;15.30;93.50;;;;;;5056112;28;20021;-84
2023/05/16 14:50:45;;;;;;;4.10;0.70;;;15.30;93.20;;;;;;5073812;28;20051;-84
2023/05/16 14:53:11;;;;;;;3.20;0.50;;;15.30;93.10;;;;;;5073614;28;20070;-83
2023/05/16 14:55:37;;;;;;;2.05;0.73;;;15.30;93.10;;;;;;5073825;28;20150;-84
2023/05/16 14:58:03;;;;;;;1.38;0.50;;;15.20;93.40;;;;;;5073610;28;20112;-84
2023/05/16 15:00:30;;;;;;;2.15;0.60;;;15.20;93.40;;;;;;5073852;28;20448;-85
2023/05/16 15:02:56;;;;;;;5.60;0.45;;;15.20;93.90;;;;;;5073791;28;20128;-77
2023/05/16 15:05:24;;;;;;;0.43;0.30;;;15.20;94.60;;;;;;5073281;28;20036;-77
2023/05/16 15:07:50;;;;;;;1.90;0.50;;;15.10;94.80;;;;;;5055057;28;20426;-78